Getzville 2E NY

43° 01' 25"N, 78° 44' 55"W, Elevation 589 ft.
Eastern Time

Hourly observations for the last 72 hours

Date Time Temperature (°F) Humi-
dity

(%)
Wind
(mph)
Pressure Rain (in) Sun
(W/m2)
ET
(in)
Air Dew 6 Hour 1 Hr 3 Hr 6 Hr Day
Alt
(in)
Sea
Level

(mb)
Max Min
22 17:00 34.3 25.9 71 NNE 0 G 3 30.46 1031.6 0.00 44 0.022
22 16:00 34.6 25.8 70 ENE 1 G 3 30.47 1031.9 0.00 86 0.020
22 15:00 35.4 26.6 70 NNW 1 G 7 30.47 1031.9 0.00 163 0.017
22 14:00 35.4 26.6 70 W 1 G 4 30.46 1031.6 0.00 197 0.014
22 13:00 34.8 26.0 35.4 23.3 70 WSW 2 G 4 30.46 1031.4 0.00 181 0.011
22 12:00 34.6 26.8 73 WNW 1 G 4 30.47 1031.7 0.00 176 0.008
22 11:00 35.4 26.9 71 WNW 4 G 6 30.46 1031.7 0.00 239 0.003
22 10:00 32.9 26.8 78 N 4 G 8 30.45 1031.1 0.00 315 0.001
22 09:00 29.3 25.9 87 WNW 2 G 7 30.45 1031.2 0.00 58 0.000
22 08:00 24.4 22.2 91 W 1 G 2 30.43 1030.4 0.00 42 0.000
22 07:00 23.4 20.9 28.1 23.4 90 Calm 30.40 1029.5 0.00 0 0.000
22 06:00 24.3 21.8 90 Calm 30.38 1028.8 0.00 0 0.000
22 05:00 24.4 21.9 90 W 0 G 1 30.36 1028.0 0.00 0 0.000
22 04:00 24.3 21.5 89 Calm 30.33 1027.1 0.00 0 0.000
22 03:00 25.3 22.2 88 Calm 30.31 1026.3 0.00 0 0.000
22 02:00 26.6 23.3 87 W 0 G 2 30.30 1026.0 0.00 0 0.000
22 01:00 28.1 23.6 32.6 28.1 83 W 0 G 2 30.28 1025.4 0.00 0 0.000
22 00:00 31.0 24.9 78 WNW 1 G 4 30.26 1024.9 0.07 0 0.031
21 23:00 30.7 26.4 84 W 2 G 5 30.25 1024.3 0.07 0 0.031
21 22:00 31.9 27.3 83 NW 1 G 4 30.22 1023.4 0.07 0 0.031
21 21:00 32.0 27.7 84 W 3 G 9 30.20 1022.8 0.07 0 0.031
21 20:00 31.9 27.3 83 WSW 1 G 7 30.18 1022.0 0.07 0 0.031
21 19:00 32.6 27.7 37.2 32.6 82 WSW 4 G 11 30.17 1021.6 0.07 0 0.030
21 18:00 33.4 27.9 80 W 3 G 15 30.14 1020.6 0.07 0 0.029
21 17:00 34.8 28.3 77 WSW 7 G 14 30.09 1019.1 0.07 51 0.027
21 16:00 36.4 29.9 77 W 5 G 19 30.07 1018.5 0.07 297 0.023
21 15:00 36.2 30.0 78 WSW 7 G 22 30.06 1017.9 0.07 276 0.018
21 14:00 35.9 29.7 78 WSW 6 G 23 30.04 1017.4 0.07 320 0.014
21 13:00 36.1 29.9 36.1 34.4 78 W 6 G 23 30.04 1017.3 0.01 0.07 294 0.010
21 12:00 35.4 29.8 80 W 5 G 17 30.04 1017.2 0.07 197 0.007
21 11:00 35.2 30.6 83 WSW 8 G 16 30.02 1016.7 0.07 172 0.004
21 10:00 35.1 30.8 84 WSW 7 G 20 30.00 1016.0 0.01 0.01 0.07 128 0.002
21 09:00 34.7 30.9 86 WSW 5 G 12 29.98 1015.3 0.06 72 0.001
21 08:00 34.4 31.2 88 W 4 G 19 29.96 1014.5 0.06 23 0.000
21 07:00 34.6 31.7 39.0 34.6 89 WSW 8 G 18 29.93 1013.5 0.01 0.06 0.06 0 0.000
21 06:00 35.3 32.7 90 SW 5 G 13 29.91 1013.0 0.06 0 0.000
21 05:00 35.3 33.5 93 WSW 6 G 14 29.89 1012.2 0.01 0.06 0 0.000
21 04:00 35.9 34.1 93 WSW 5 G 12 29.86 1011.3 0.01 0.05 0.05 0 0.000
21 03:00 37.7 35.9 93 W 6 G 13 29.83 1010.3 0.02 0.04 0 0.000
21 02:00 38.8 37.2 94 W 5 G 14 29.80 1009.2 0.02 0.02 0 0.000
21 01:00 38.7 37.1 38.7 31.1 94 SW 4 G 11 29.78 1008.4 0.00 0 0.000
21 00:00 36.5 34.9 94 SW 2 G 4 29.77 1008.3 0.01 0 0.023
20 23:00 33.7 31.6 92 S 1 G 4 29.78 1008.4 0.01 0 0.023
20 22:00 33.1 30.5 90 SSW 2 G 4 29.81 1009.4 0.01 0 0.023
20 21:00 32.1 29.5 90 SSE 1 G 9 29.85 1010.8 0.01 0 0.023
20 20:00 31.2 28.6 90 ESE 3 G 8 29.90 1012.5 0.01 0 0.023
20 19:00 31.7 27.7 36.0 31.4 85 SE 3 G 10 29.98 1015.3 0.01 0.01 0 0.023
20 18:00 32.4 27.8 83 S 1 G 8 30.02 1016.7 0.01 0 0.023
20 17:00 33.4 27.9 80 S 3 G 8 30.04 1017.3 0.01 30 0.022
20 16:00 33.4 29.1 84 S 3 G 8 30.09 1019.0 0.01 0.01 0.01 88 0.021
20 15:00 34.0 30.5 87 ESE 1 G 5 30.14 1020.8 0.00 100 0.019
20 14:00 35.9 25.7 66 ESE 3 G 8 30.16 1021.5 0.00 250 0.015
20 13:00 33.5 21.9 33.5 16.5 62 ESE 2 G 10 30.23 1023.7 0.00 327 0.010
20 12:00 29.9 17.3 59 E 4 G 8 30.31 1026.3 0.00 292 0.007
20 11:00 27.7 15.6 60 E 3 G 6 30.32 1026.9 0.00 130 0.004
20 10:00 25.8 14.9 63 E 4 G 9 30.36 1028.3 0.00 190 0.001
20 09:00 21.9 13.6 70 E 6 G 11 30.40 1029.5 0.00 113 0.000
20 08:00 18.4 12.1 76 E 3 G 6 30.46 1031.5 0.00 46 0.000
20 07:00 16.5 10.8 16.5 9.9 78 E 2 G 6 30.48 1032.3 0.00 0 0.000
20 06:00 13.8 10.1 85 E 0 G 3 30.51 1033.3 0.00 0 0.000
20 05:00 12.3 9.2 87 WSW 0 G 1 30.52 1033.7 0.00 0 0.000
20 04:00 11.0 7.9 87 Calm 30.56 1034.8 0.00 0 0.000
20 03:00 10.2 7.1 87 Calm 30.56 1034.9 0.00 0 0.000
20 02:00 10.1 7.0 87 Calm 30.58 1035.6 0.00 0 0.000
20 01:00 10.1 7.3 17.3 9.4 88 Calm 30.60 1036.1 0.00 0 0.000
20 00:00 10.0 7.2 88 Calm 30.60 1036.3 0.00 0 0.031
19 23:00 10.0 6.9 87 Calm 30.61 1036.5 0.00 0 0.031
19 22:00 11.2 7.8 86 Calm 30.62 1036.9 0.00 0 0.031
19 21:00 11.9 8.5 86 Calm 30.62 1037.0 0.00 0 0.031
19 20:00 14.0 9.5 82 W 1 G 1 30.64 1037.7 0.00 0 0.031
19 19:00 17.3 11.6 24.3 17.3 78 Calm 30.65 1038.1 0.00 0 0.031
19 18:00 20.2 12.6 72 W 1 G 5 30.65 1038.0 0.00 0 0.031

Data generated by WxSolution Version 1.9.1.5, Build 2018.05.20.